sensor_id;sensor_type;location;lat;lon;timestamp;P1;durP1;ratioP1;P2;durP2;ratioP2
5989;SDS011;14149;53.562;10.032;2022-10-22T00:01:22;24.93;;;12.70;;
5989;SDS011;14149;53.562;10.032;2022-10-22T00:03:49;19.70;;;11.57;;
5989;SDS011;14149;53.562;10.032;2022-10-22T00:06:15;22.30;;;12.10;;
5989;SDS011;14149;53.562;10.032;2022-10-22T00:08:41;23.13;;;12.20;;
5989;SDS011;14149;53.562;10.032;2022-10-22T00:11:14;27.03;;;13.07;;
5989;SDS011;14149;53.562;10.032;2022-10-22T00:13:40;24.40;;;12.67;;
5989;SDS011;14149;53.562;10.032;2022-10-22T00:16:07;23.87;;;13.40;;
5989;SDS011;14149;53.562;10.032;2022-10-22T00:18:33;23.40;;;11.43;;
5989;SDS011;14149;53.562;10.032;2022-10-22T00:20:59;26.33;;;13.50;;
5989;SDS011;14149;53.562;10.032;2022-10-22T00:23:25;21.80;;;11.97;;
5989;SDS011;14149;53.562;10.032;2022-10-22T00:25:52;22.30;;;13.43;;
5989;SDS011;14149;53.562;10.032;2022-10-22T00:28:18;25.37;;;12.77;;
5989;SDS011;14149;53.562;10.032;2022-10-22T00:30:44;25.10;;;13.17;;
5989;SDS011;14149;53.562;10.032;2022-10-22T00:33:10;21.87;;;12.70;;
5989;SDS011;14149;53.562;10.032;2022-10-22T00:35:36;28.47;;;13.30;;
5989;SDS011;14149;53.562;10.032;2022-10-22T00:38:02;20.30;;;11.30;;
5989;SDS011;14149;53.562;10.032;2022-10-22T00:40:29;23.03;;;12.20;;
5989;SDS011;14149;53.562;10.032;2022-10-22T00:42:55;29.33;;;14.80;;
5989;SDS011;14149;53.562;10.032;2022-10-22T00:45:25;25.80;;;14.07;;
5989;SDS011;14149;53.562;10.032;2022-10-22T00:48:04;27.47;;;15.07;;
5989;SDS011;14149;53.562;10.032;2022-10-22T00:53:01;31.90;;;14.60;;
5989;SDS011;14149;53.562;10.032;2022-10-22T00:55:28;32.10;;;15.13;;
5989;SDS011;14149;53.562;10.032;2022-10-22T00:57:55;27.53;;;13.67;;
5989;SDS011;14149;53.562;10.032;2022-10-22T01:00:22;27.23;;;13.63;;
5989;SDS011;14149;53.562;10.032;2022-10-22T01:02:51;31.30;;;15.73;;
5989;SDS011;14149;53.562;10.032;2022-10-22T01:05:18;27.20;;;14.70;;
5989;SDS011;14149;53.562;10.032;2022-10-22T01:07:49;29.63;;;15.87;;
5989;SDS011;14149;53.562;10.032;2022-10-22T01:10:37;27.80;;;14.87;;
5989;SDS011;14149;53.562;10.032;2022-10-22T01:13:16;29.77;;;15.93;;
5989;SDS011;14149;53.562;10.032;2022-10-22T01:16:31;28.40;;;16.20;;
5989;SDS011;14149;53.562;10.032;2022-10-22T01:19:35;31.00;;;15.40;;
5989;SDS011;14149;53.562;10.032;2022-10-22T01:21:39;29.60;;;15.50;;
5989;SDS011;14149;53.562;10.032;2022-10-22T01:29:18;27.37;;;15.73;;
5989;SDS011;14149;53.562;10.032;2022-10-22T01:31:57;31.33;;;16.57;;
5989;SDS011;14149;53.562;10.032;2022-10-22T01:34:24;34.93;;;15.90;;
5989;SDS011;14149;53.562;10.032;2022-10-22T01:36:50;27.23;;;15.63;;
5989;SDS011;14149;53.562;10.032;2022-10-22T01:39:17;35.00;;;16.50;;
5989;SDS011;14149;53.562;10.032;2022-10-22T01:41:44;34.97;;;15.70;;
5989;SDS011;14149;53.562;10.032;2022-10-22T01:44:29;25.87;;;14.50;;
5989;SDS011;14149;53.562;10.032;2022-10-22T01:47:01;28.53;;;15.53;;
5989;SDS011;14149;53.562;10.032;2022-10-22T01:50:05;32.27;;;15.87;;
5989;SDS011;14149;53.562;10.032;2022-10-22T01:57:23;28.10;;;15.37;;
5989;SDS011;14149;53.562;10.032;2022-10-22T02:00:05;24.80;;;14.87;;
5989;SDS011;14149;53.562;10.032;2022-10-22T02:02:42;32.30;;;14.90;;
5989;SDS011;14149;53.562;10.032;2022-10-22T02:05:22;28.73;;;16.00;;
5989;SDS011;14149;53.562;10.032;2022-10-22T02:07:51;33.43;;;15.50;;
5989;SDS011;14149;53.562;10.032;2022-10-22T02:10:19;29.57;;;15.83;;
5989;SDS011;14149;53.562;10.032;2022-10-22T02:12:47;26.57;;;15.07;;
5989;SDS011;14149;53.562;10.032;2022-10-22T02:15:14;25.53;;;14.83;;
5989;SDS011;14149;53.562;10.032;2022-10-22T02:17:42;29.70;;;15.73;;
5989;SDS011;14149;53.562;10.032;2022-10-22T02:20:12;24.30;;;14.53;;
5989;SDS011;14149;53.562;10.032;2022-10-22T02:22:39;29.27;;;14.17;;
5989;SDS011;14149;53.562;10.032;2022-10-22T02:25:06;28.47;;;16.37;;
5989;SDS011;14149;53.562;10.032;2022-10-22T02:27:52;29.60;;;15.80;;
5989;SDS011;14149;53.562;10.032;2022-10-22T02:30:23;29.20;;;15.10;;
5989;SDS011;14149;53.562;10.032;2022-10-22T02:32:56;26.00;;;15.73;;
5989;SDS011;14149;53.562;10.032;2022-10-22T02:35:23;27.07;;;15.10;;
5989;SDS011;14149;53.562;10.032;2022-10-22T02:37:51;26.57;;;14.67;;
5989;SDS011;14149;53.562;10.032;2022-10-22T02:40:17;27.80;;;15.27;;
5989;SDS011;14149;53.562;10.032;2022-10-22T02:42:45;27.40;;;13.97;;
5989;SDS011;14149;53.562;10.032;2022-10-22T02:45:12;22.97;;;14.33;;
5989;SDS011;14149;53.562;10.032;2022-10-22T02:47:38;26.53;;;13.57;;
5989;SDS011;14149;53.562;10.032;2022-10-22T02:50:05;24.20;;;13.17;;
5989;SDS011;14149;53.562;10.032;2022-10-22T02:52:31;28.17;;;15.13;;
5989;SDS011;14149;53.562;10.032;2022-10-22T02:54:57;30.93;;;14.40;;
5989;SDS011;14149;53.562;10.032;2022-10-22T02:57:23;23.07;;;13.27;;
5989;SDS011;14149;53.562;10.032;2022-10-22T02:59:49;25.43;;;13.93;;
5989;SDS011;14149;53.562;10.032;2022-10-22T03:02:15;28.30;;;14.40;;
5989;SDS011;14149;53.562;10.032;2022-10-22T03:04:41;21.40;;;12.33;;
5989;SDS011;14149;53.562;10.032;2022-10-22T03:07:07;24.70;;;12.60;;
5989;SDS011;14149;53.562;10.032;2022-10-22T03:09:33;26.07;;;13.90;;
5989;SDS011;14149;53.562;10.032;2022-10-22T03:11:59;26.67;;;12.77;;
5989;SDS011;14149;53.562;10.032;2022-10-22T03:14:26;24.80;;;13.03;;
5989;SDS011;14149;53.562;10.032;2022-10-22T03:16:52;26.50;;;14.57;;
5989;SDS011;14149;53.562;10.032;2022-10-22T03:19:18;24.40;;;14.13;;
5989;SDS011;14149;53.562;10.032;2022-10-22T03:21:48;21.60;;;12.20;;
5989;SDS011;14149;53.562;10.032;2022-10-22T03:24:16;24.73;;;14.40;;
5989;SDS011;14149;53.562;10.032;2022-10-22T03:26:44;23.60;;;13.83;;
5989;SDS011;14149;53.562;10.032;2022-10-22T03:29:11;23.67;;;14.03;;
5989;SDS011;14149;53.562;10.032;2022-10-22T03:31:39;24.53;;;14.13;;
5989;SDS011;14149;53.562;10.032;2022-10-22T03:34:05;28.50;;;14.30;;
5989;SDS011;14149;53.562;10.032;2022-10-22T03:36:31;26.13;;;14.57;;
5989;SDS011;14149;53.562;10.032;2022-10-22T03:38:58;25.10;;;14.27;;
5989;SDS011;14149;53.562;10.032;2022-10-22T03:41:24;25.47;;;12.07;;
5989;SDS011;14149;53.562;10.032;2022-10-22T03:43:50;28.33;;;14.73;;
5989;SDS011;14149;53.562;10.032;2022-10-22T03:46:18;23.37;;;13.93;;
5989;SDS011;14149;53.562;10.032;2022-10-22T03:48:44;27.27;;;14.20;;
5989;SDS011;14149;53.562;10.032;2022-10-22T03:51:10;23.97;;;13.30;;
5989;SDS011;14149;53.562;10.032;2022-10-22T03:53:36;21.97;;;12.57;;
5989;SDS011;14149;53.562;10.032;2022-10-22T03:56:06;24.33;;;12.40;;
5989;SDS011;14149;53.562;10.032;2022-10-22T03:58:33;22.33;;;13.03;;
5989;SDS011;14149;53.562;10.032;2022-10-22T04:01:03;28.27;;;14.53;;
5989;SDS011;14149;53.562;10.032;2022-10-22T04:03:29;23.80;;;14.33;;
5989;SDS011;14149;53.562;10.032;2022-10-22T04:05:59;26.30;;;14.10;;
5989;SDS011;14149;53.562;10.032;2022-10-22T04:08:25;24.40;;;13.07;;
5989;SDS011;14149;53.562;10.032;2022-10-22T04:10:51;26.33;;;13.60;;
5989;SDS011;14149;53.562;10.032;2022-10-22T04:13:17;24.60;;;14.27;;
5989;SDS011;14149;53.562;10.032;2022-10-22T04:15:43;27.53;;;14.47;;
5989;SDS011;14149;53.562;10.032;2022-10-22T04:18:09;28.67;;;15.10;;
5989;SDS011;14149;53.562;10.032;2022-10-22T04:20:35;26.47;;;13.67;;
5989;SDS011;14149;53.562;10.032;2022-10-22T04:23:02;24.50;;;14.23;;
5989;SDS011;14149;53.562;10.032;2022-10-22T04:25:28;24.53;;;13.43;;
5989;SDS011;14149;53.562;10.032;2022-10-22T04:27:54;25.10;;;14.67;;
5989;SDS011;14149;53.562;10.032;2022-10-22T04:30:20;29.23;;;14.27;;
5989;SDS011;14149;53.562;10.032;2022-10-22T04:32:46;28.70;;;14.67;;
5989;SDS011;14149;53.562;10.032;2022-10-22T04:35:12;24.77;;;13.57;;
5989;SDS011;14149;53.562;10.032;2022-10-22T04:37:38;25.17;;;13.40;;
5989;SDS011;14149;53.562;10.032;2022-10-22T04:40:04;25.67;;;12.90;;
5989;SDS011;14149;53.562;10.032;2022-10-22T04:42:30;23.80;;;12.80;;
5989;SDS011;14149;53.562;10.032;2022-10-22T04:44:56;21.73;;;13.90;;
5989;SDS011;14149;53.562;10.032;2022-10-22T04:47:22;21.90;;;12.80;;
5989;SDS011;14149;53.562;10.032;2022-10-22T04:49:48;25.23;;;12.60;;
5989;SDS011;14149;53.562;10.032;2022-10-22T04:52:15;24.07;;;13.30;;
5989;SDS011;14149;53.562;10.032;2022-10-22T04:54:41;31.30;;;14.20;;
5989;SDS011;14149;53.562;10.032;2022-10-22T04:57:07;19.90;;;11.10;;
5989;SDS011;14149;53.562;10.032;2022-10-22T04:59:33;26.97;;;14.40;;
5989;SDS011;14149;53.562;10.032;2022-10-22T05:01:59;19.27;;;12.87;;
5989;SDS011;14149;53.562;10.032;2022-10-22T05:04:25;23.53;;;12.93;;
5989;SDS011;14149;53.562;10.032;2022-10-22T05:06:51;21.70;;;13.73;;
5989;SDS011;14149;53.562;10.032;2022-10-22T05:09:18;26.90;;;14.70;;
5989;SDS011;14149;53.562;10.032;2022-10-22T05:11:45;26.57;;;13.17;;
5989;SDS011;14149;53.562;10.032;2022-10-22T05:14:16;25.10;;;14.47;;
5989;SDS011;14149;53.562;10.032;2022-10-22T05:16:42;25.00;;;13.60;;
5989;SDS011;14149;53.562;10.032;2022-10-22T05:19:11;28.97;;;13.87;;
5989;SDS011;14149;53.562;10.032;2022-10-22T05:21:39;24.77;;;13.27;;
5989;SDS011;14149;53.562;10.032;2022-10-22T05:24:05;28.00;;;14.03;;
5989;SDS011;14149;53.562;10.032;2022-10-22T05:26:31;27.50;;;14.83;;
5989;SDS011;14149;53.562;10.032;2022-10-22T05:28:57;35.87;;;14.83;;
5989;SDS011;14149;53.562;10.032;2022-10-22T05:31:23;27.87;;;14.20;;
5989;SDS011;14149;53.562;10.032;2022-10-22T05:33:49;26.67;;;14.00;;
5989;SDS011;14149;53.562;10.032;2022-10-22T05:36:17;24.40;;;13.50;;
5989;SDS011;14149;53.562;10.032;2022-10-22T05:38:43;35.70;;;13.90;;
5989;SDS011;14149;53.562;10.032;2022-10-22T05:41:10;26.77;;;15.23;;
5989;SDS011;14149;53.562;10.032;2022-10-22T05:43:36;30.20;;;13.87;;
5989;SDS011;14149;53.562;10.032;2022-10-22T05:46:04;29.03;;;13.60;;
5989;SDS011;14149;53.562;10.032;2022-10-22T05:48:31;34.90;;;13.13;;
5989;SDS011;14149;53.562;10.032;2022-10-22T05:51:00;37.80;;;13.30;;
5989;SDS011;14149;53.562;10.032;2022-10-22T05:53:29;28.73;;;13.80;;
5989;SDS011;14149;53.562;10.032;2022-10-22T05:55:55;28.80;;;12.90;;
5989;SDS011;14149;53.562;10.032;2022-10-22T05:58:21;32.80;;;14.30;;
5989;SDS011;14149;53.562;10.032;2022-10-22T06:00:47;36.13;;;15.37;;
5989;SDS011;14149;53.562;10.032;2022-10-22T06:03:13;36.00;;;16.10;;
5989;SDS011;14149;53.562;10.032;2022-10-22T06:05:39;44.43;;;17.33;;
5989;SDS011;14149;53.562;10.032;2022-10-22T06:08:05;48.53;;;15.23;;
5989;SDS011;14149;53.562;10.032;2022-10-22T06:10:31;30.93;;;14.03;;
5989;SDS011;14149;53.562;10.032;2022-10-22T06:12:57;35.30;;;15.30;;
5989;SDS011;14149;53.562;10.032;2022-10-22T06:15:25;35.47;;;14.23;;
5989;SDS011;14149;53.562;10.032;2022-10-22T06:17:51;36.53;;;15.57;;
5989;SDS011;14149;53.562;10.032;2022-10-22T06:20:17;36.43;;;14.87;;
5989;SDS011;14149;53.562;10.032;2022-10-22T06:22:43;36.13;;;16.00;;
5989;SDS011;14149;53.562;10.032;2022-10-22T06:25:10;31.37;;;15.67;;
5989;SDS011;14149;53.562;10.032;2022-10-22T06:27:36;30.50;;;14.73;;
5989;SDS011;14149;53.562;10.032;2022-10-22T06:30:02;33.53;;;15.03;;
5989;SDS011;14149;53.562;10.032;2022-10-22T06:32:29;30.27;;;14.13;;
5989;SDS011;14149;53.562;10.032;2022-10-22T06:34:55;25.50;;;13.13;;
5989;SDS011;14149;53.562;10.032;2022-10-22T06:37:21;28.17;;;13.97;;
5989;SDS011;14149;53.562;10.032;2022-10-22T06:39:47;30.40;;;13.90;;
5989;SDS011;14149;53.562;10.032;2022-10-22T06:42:13;29.37;;;13.40;;
5989;SDS011;14149;53.562;10.032;2022-10-22T06:44:39;26.40;;;13.07;;
5989;SDS011;14149;53.562;10.032;2022-10-22T06:47:05;33.60;;;14.47;;
5989;SDS011;14149;53.562;10.032;2022-10-22T06:49:31;30.20;;;15.00;;
5989;SDS011;14149;53.562;10.032;2022-10-22T06:51:57;32.83;;;14.47;;
5989;SDS011;14149;53.562;10.032;2022-10-22T06:54:23;28.37;;;13.50;;
5989;SDS011;14149;53.562;10.032;2022-10-22T06:56:49;26.37;;;14.27;;
5989;SDS011;14149;53.562;10.032;2022-10-22T06:59:15;29.20;;;14.33;;
5989;SDS011;14149;53.562;10.032;2022-10-22T07:01:42;31.67;;;14.60;;
5989;SDS011;14149;53.562;10.032;2022-10-22T07:04:08;26.77;;;15.50;;
5989;SDS011;14149;53.562;10.032;2022-10-22T07:06:35;28.07;;;14.30;;
5989;SDS011;14149;53.562;10.032;2022-10-22T07:09:01;30.50;;;15.27;;
5989;SDS011;14149;53.562;10.032;2022-10-22T07:11:28;30.80;;;14.63;;
5989;SDS011;14149;53.562;10.032;2022-10-22T07:13:55;27.00;;;14.73;;
5989;SDS011;14149;53.562;10.032;2022-10-22T07:16:22;32.63;;;16.47;;
5989;SDS011;14149;53.562;10.032;2022-10-22T07:18:48;28.53;;;15.87;;
5989;SDS011;14149;53.562;10.032;2022-10-22T07:21:15;26.47;;;14.47;;
5989;SDS011;14149;53.562;10.032;2022-10-22T07:23:42;31.90;;;16.40;;
5989;SDS011;14149;53.562;10.032;2022-10-22T07:26:08;28.00;;;15.40;;
5989;SDS011;14149;53.562;10.032;2022-10-22T07:28:36;33.20;;;16.53;;
5989;SDS011;14149;53.562;10.032;2022-10-22T07:31:05;30.30;;;16.17;;
5989;SDS011;14149;53.562;10.032;2022-10-22T07:33:31;29.70;;;14.87;;
5989;SDS011;14149;53.562;10.032;2022-10-22T07:35:58;28.80;;;15.13;;
5989;SDS011;14149;53.562;10.032;2022-10-22T07:38:24;31.30;;;16.47;;
5989;SDS011;14149;53.562;10.032;2022-10-22T07:40:50;28.83;;;15.17;;
5989;SDS011;14149;53.562;10.032;2022-10-22T07:43:17;29.60;;;16.00;;
5989;SDS011;14149;53.562;10.032;2022-10-22T07:45:43;33.50;;;15.20;;
5989;SDS011;14149;53.562;10.032;2022-10-22T07:48:09;31.70;;;15.70;;
5989;SDS011;14149;53.562;10.032;2022-10-22T07:50:35;32.30;;;17.30;;
5989;SDS011;14149;53.562;10.032;2022-10-22T07:53:01;29.50;;;15.60;;
5989;SDS011;14149;53.562;10.032;2022-10-22T07:55:27;27.10;;;16.17;;
5989;SDS011;14149;53.562;10.032;2022-10-22T07:57:53;32.03;;;17.30;;
5989;SDS011;14149;53.562;10.032;2022-10-22T08:00:19;27.50;;;14.83;;
5989;SDS011;14149;53.562;10.032;2022-10-22T08:02:45;32.13;;;17.57;;
5989;SDS011;14149;53.562;10.032;2022-10-22T08:05:11;26.50;;;16.30;;
5989;SDS011;14149;53.562;10.032;2022-10-22T08:07:38;31.30;;;16.87;;
5989;SDS011;14149;53.562;10.032;2022-10-22T08:10:04;28.87;;;14.63;;
5989;SDS011;14149;53.562;10.032;2022-10-22T08:12:30;31.40;;;15.97;;
5989;SDS011;14149;53.562;10.032;2022-10-22T08:14:56;27.20;;;15.57;;
5989;SDS011;14149;53.562;10.032;2022-10-22T08:17:24;25.60;;;16.43;;
5989;SDS011;14149;53.562;10.032;2022-10-22T08:19:51;29.00;;;17.00;;
5989;SDS011;14149;53.562;10.032;2022-10-22T08:22:17;32.47;;;16.53;;
5989;SDS011;14149;53.562;10.032;2022-10-22T08:24:43;29.10;;;15.07;;
5989;SDS011;14149;53.562;10.032;2022-10-22T08:27:09;29.73;;;15.77;;
5989;SDS011;14149;53.562;10.032;2022-10-22T08:29:35;30.93;;;16.27;;
5989;SDS011;14149;53.562;10.032;2022-10-22T08:32:01;25.97;;;14.23;;
5989;SDS011;14149;53.562;10.032;2022-10-22T08:34:28;24.80;;;14.27;;
5989;SDS011;14149;53.562;10.032;2022-10-22T08:36:54;20.47;;;11.83;;
5989;SDS011;14149;53.562;10.032;2022-10-22T08:39:20;20.97;;;12.80;;
5989;SDS011;14149;53.562;10.032;2022-10-22T08:44:30;19.30;;;10.07;;
5989;SDS011;14149;53.562;10.032;2022-10-22T08:47:25;19.33;;;10.73;;
5989;SDS011;14149;53.562;10.032;2022-10-22T08:49:56;18.47;;;10.10;;
5989;SDS011;14149;53.562;10.032;2022-10-22T08:52:24;18.77;;;11.20;;
5989;SDS011;14149;53.562;10.032;2022-10-22T08:54:59;18.17;;;9.80;;
5989;SDS011;14149;53.562;10.032;2022-10-22T09:00:03;16.67;;;10.20;;
5989;SDS011;14149;53.562;10.032;2022-10-22T09:07:59;14.43;;;7.80;;
5989;SDS011;14149;53.562;10.032;2022-10-22T09:10:26;14.43;;;8.30;;
5989;SDS011;14149;53.562;10.032;2022-10-22T09:12:53;13.27;;;7.57;;
5989;SDS011;14149;53.562;10.032;2022-10-22T09:15:20;19.33;;;7.97;;
5989;SDS011;14149;53.562;10.032;2022-10-22T09:17:52;14.60;;;7.50;;
5989;SDS011;14149;53.562;10.032;2022-10-22T09:20:44;14.37;;;6.60;;
5989;SDS011;14149;53.562;10.032;2022-10-22T09:25:57;12.60;;;6.47;;
5989;SDS011;14149;53.562;10.032;2022-10-22T09:28:24;12.53;;;6.07;;
5989;SDS011;14149;53.562;10.032;2022-10-22T09:30:50;12.63;;;5.57;;
5989;SDS011;14149;53.562;10.032;2022-10-22T09:33:23;12.90;;;5.10;;
5989;SDS011;14149;53.562;10.032;2022-10-22T09:35:54;9.67;;;5.27;;
5989;SDS011;14149;53.562;10.032;2022-10-22T09:38:22;13.03;;;5.60;;
5989;SDS011;14149;53.562;10.032;2022-10-22T09:40:50;17.60;;;6.47;;
5989;SDS011;14149;53.562;10.032;2022-10-22T09:43:17;10.10;;;5.27;;
5989;SDS011;14149;53.562;10.032;2022-10-22T09:45:47;13.00;;;6.10;;
5989;SDS011;14149;53.562;10.032;2022-10-22T09:50:42;13.80;;;4.93;;
5989;SDS011;14149;53.562;10.032;2022-10-22T09:56:20;10.97;;;4.93;;
5989;SDS011;14149;53.562;10.032;2022-10-22T09:58:48;10.40;;;5.13;;
5989;SDS011;14149;53.562;10.032;2022-10-22T10:01:20;12.93;;;5.40;;
5989;SDS011;14149;53.562;10.032;2022-10-22T10:03:47;14.77;;;5.40;;
5989;SDS011;14149;53.562;10.032;2022-10-22T10:06:16;9.77;;;4.90;;
5989;SDS011;14149;53.562;10.032;2022-10-22T10:08:42;11.20;;;5.07;;
5989;SDS011;14149;53.562;10.032;2022-10-22T10:11:27;10.30;;;4.60;;
5989;SDS011;14149;53.562;10.032;2022-10-22T10:13:58;15.80;;;4.70;;
5989;SDS011;14149;53.562;10.032;2022-10-22T10:16:31;10.63;;;4.47;;
5989;SDS011;14149;53.562;10.032;2022-10-22T10:21:29;11.17;;;4.17;;
5989;SDS011;14149;53.562;10.032;2022-10-22T10:24:02;8.37;;;4.47;;
5989;SDS011;14149;53.562;10.032;2022-10-22T10:26:38;11.60;;;4.47;;
5989;SDS011;14149;53.562;10.032;2022-10-22T10:29:21;12.57;;;3.83;;
5989;SDS011;14149;53.562;10.032;2022-10-22T10:31:56;18.17;;;4.30;;
5989;SDS011;14149;53.562;10.032;2022-10-22T10:34:28;8.20;;;3.87;;
5989;SDS011;14149;53.562;10.032;2022-10-22T10:37:04;10.20;;;3.80;;
5989;SDS011;14149;53.562;10.032;2022-10-22T10:39:39;8.33;;;3.90;;
5989;SDS011;14149;53.562;10.032;2022-10-22T10:43:08;8.60;;;3.33;;
5989;SDS011;14149;53.562;10.032;2022-10-22T10:45:15;8.87;;;3.63;;
5989;SDS011;14149;53.562;10.032;2022-10-22T10:53:24;12.13;;;4.20;;
5989;SDS011;14149;53.562;10.032;2022-10-22T10:56:11;9.50;;;3.50;;
5989;SDS011;14149;53.562;10.032;2022-10-22T11:06:10;14.83;;;3.17;;
5989;SDS011;14149;53.562;10.032;2022-10-22T11:08:38;8.97;;;3.80;;
5989;SDS011;14149;53.562;10.032;2022-10-22T11:11:29;9.63;;;3.20;;
5989;SDS011;14149;53.562;10.032;2022-10-22T11:14:13;7.93;;;2.70;;
5989;SDS011;14149;53.562;10.032;2022-10-22T11:16:51;12.20;;;3.40;;
5989;SDS011;14149;53.562;10.032;2022-10-22T11:21:53;7.53;;;3.43;;
5989;SDS011;14149;53.562;10.032;2022-10-22T11:24:39;8.57;;;3.70;;
5989;SDS011;14149;53.562;10.032;2022-10-22T11:27:09;12.20;;;3.60;;
5989;SDS011;14149;53.562;10.032;2022-10-22T11:29:37;14.27;;;4.10;;
5989;SDS011;14149;53.562;10.032;2022-10-22T11:32:05;9.80;;;3.93;;
5989;SDS011;14149;53.562;10.032;2022-10-22T11:34:49;15.93;;;4.03;;
5989;SDS011;14149;53.562;10.032;2022-10-22T11:37:18;9.40;;;3.50;;
5989;SDS011;14149;53.562;10.032;2022-10-22T11:39:58;7.87;;;3.70;;
5989;SDS011;14149;53.562;10.032;2022-10-22T11:42:36;9.90;;;3.27;;
5989;SDS011;14149;53.562;10.032;2022-10-22T11:45:25;9.00;;;3.40;;
5989;SDS011;14149;53.562;10.032;2022-10-22T11:47:57;11.33;;;3.90;;
5989;SDS011;14149;53.562;10.032;2022-10-22T11:50:42;8.30;;;3.33;;
5989;SDS011;14149;53.562;10.032;2022-10-22T11:55:41;7.87;;;3.17;;
5989;SDS011;14149;53.562;10.032;2022-10-22T12:00:57;8.97;;;3.80;;
5989;SDS011;14149;53.562;10.032;2022-10-22T12:03:38;9.13;;;2.77;;
5989;SDS011;14149;53.562;10.032;2022-10-22T12:19:02;9.20;;;3.50;;
5989;SDS011;14149;53.562;10.032;2022-10-22T12:21:29;13.20;;;3.97;;
5989;SDS011;14149;53.562;10.032;2022-10-22T12:23:57;8.83;;;3.23;;
5989;SDS011;14149;53.562;10.032;2022-10-22T12:26:24;9.13;;;3.73;;
5989;SDS011;14149;53.562;10.032;2022-10-22T12:28:55;6.83;;;2.97;;
5989;SDS011;14149;53.562;10.032;2022-10-22T12:31:21;11.90;;;4.33;;
5989;SDS011;14149;53.562;10.032;2022-10-22T12:33:47;10.70;;;4.20;;
5989;SDS011;14149;53.562;10.032;2022-10-22T12:36:20;7.67;;;3.90;;
5989;SDS011;14149;53.562;10.032;2022-10-22T12:38:46;10.27;;;4.20;;
5989;SDS011;14149;53.562;10.032;2022-10-22T12:41:12;7.30;;;3.90;;
5989;SDS011;14149;53.562;10.032;2022-10-22T12:43:38;9.57;;;4.60;;
5989;SDS011;14149;53.562;10.032;2022-10-22T12:46:08;12.70;;;4.73;;
5989;SDS011;14149;53.562;10.032;2022-10-22T12:48:37;9.57;;;5.00;;
5989;SDS011;14149;53.562;10.032;2022-10-22T12:51:05;10.10;;;5.80;;
5989;SDS011;14149;53.562;10.032;2022-10-22T12:53:35;12.30;;;5.10;;
5989;SDS011;14149;53.562;10.032;2022-10-22T12:56:04;12.97;;;5.60;;
5989;SDS011;14149;53.562;10.032;2022-10-22T12:58:33;14.23;;;5.47;;
5989;SDS011;14149;53.562;10.032;2022-10-22T13:01:01;7.93;;;4.47;;
5989;SDS011;14149;53.562;10.032;2022-10-22T13:03:29;13.03;;;5.00;;
5989;SDS011;14149;53.562;10.032;2022-10-22T13:05:55;9.93;;;5.17;;
5989;SDS011;14149;53.562;10.032;2022-10-22T13:08:22;12.93;;;5.30;;
5989;SDS011;14149;53.562;10.032;2022-10-22T13:10:52;9.57;;;4.80;;
5989;SDS011;14149;53.562;10.032;2022-10-22T13:16:16;10.60;;;5.10;;
5989;SDS011;14149;53.562;10.032;2022-10-22T13:18:43;12.63;;;4.70;;
5989;SDS011;14149;53.562;10.032;2022-10-22T13:21:19;10.40;;;4.53;;
5989;SDS011;14149;53.562;10.032;2022-10-22T13:23:50;9.47;;;4.67;;
5989;SDS011;14149;53.562;10.032;2022-10-22T13:26:16;13.60;;;6.47;;
5989;SDS011;14149;53.562;10.032;2022-10-22T13:28:48;10.67;;;4.80;;
5989;SDS011;14149;53.562;10.032;2022-10-22T13:33:42;11.53;;;4.10;;
5989;SDS011;14149;53.562;10.032;2022-10-22T13:36:15;11.83;;;4.60;;
5989;SDS011;14149;53.562;10.032;2022-10-22T13:38:42;11.73;;;5.20;;
5989;SDS011;14149;53.562;10.032;2022-10-22T13:41:19;10.43;;;4.47;;
5989;SDS011;14149;53.562;10.032;2022-10-22T13:43:46;8.70;;;4.27;;
5989;SDS011;14149;53.562;10.032;2022-10-22T13:46:12;9.50;;;5.20;;
5989;SDS011;14149;53.562;10.032;2022-10-22T13:48:38;11.40;;;4.80;;
5989;SDS011;14149;53.562;10.032;2022-10-22T13:51:17;10.40;;;4.70;;
5989;SDS011;14149;53.562;10.032;2022-10-22T13:53:44;11.23;;;5.27;;
5989;SDS011;14149;53.562;10.032;2022-10-22T13:56:15;8.27;;;4.20;;
5989;SDS011;14149;53.562;10.032;2022-10-22T13:58:41;10.77;;;4.37;;
5989;SDS011;14149;53.562;10.032;2022-10-22T14:03:40;9.13;;;4.00;;
5989;SDS011;14149;53.562;10.032;2022-10-22T14:06:09;16.30;;;4.60;;
5989;SDS011;14149;53.562;10.032;2022-10-22T14:08:36;14.63;;;4.77;;
5989;SDS011;14149;53.562;10.032;2022-10-22T14:11:03;15.13;;;4.23;;
5989;SDS011;14149;53.562;10.032;2022-10-22T14:13:29;7.60;;;4.27;;
5989;SDS011;14149;53.562;10.032;2022-10-22T14:15:55;13.50;;;5.07;;
5989;SDS011;14149;53.562;10.032;2022-10-22T14:18:25;9.20;;;4.73;;
5989;SDS011;14149;53.562;10.032;2022-10-22T14:20:56;12.33;;;4.73;;
5989;SDS011;14149;53.562;10.032;2022-10-22T14:23:26;10.73;;;6.07;;
5989;SDS011;14149;53.562;10.032;2022-10-22T14:25:53;8.67;;;4.40;;
5989;SDS011;14149;53.562;10.032;2022-10-22T14:28:19;10.13;;;3.93;;
5989;SDS011;14149;53.562;10.032;2022-10-22T14:30:46;13.63;;;5.90;;
5989;SDS011;14149;53.562;10.032;2022-10-22T14:33:13;15.50;;;4.80;;
5989;SDS011;14149;53.562;10.032;2022-10-22T14:35:40;9.57;;;4.57;;
5989;SDS011;14149;53.562;10.032;2022-10-22T14:38:06;12.60;;;4.00;;
5989;SDS011;14149;53.562;10.032;2022-10-22T14:40:32;9.90;;;4.83;;
5989;SDS011;14149;53.562;10.032;2022-10-22T14:42:58;9.20;;;4.10;;
5989;SDS011;14149;53.562;10.032;2022-10-22T14:45:25;9.53;;;3.53;;
5989;SDS011;14149;53.562;10.032;2022-10-22T14:47:52;10.93;;;3.67;;
5989;SDS011;14149;53.562;10.032;2022-10-22T14:50:22;10.13;;;3.73;;
5989;SDS011;14149;53.562;10.032;2022-10-22T14:52:49;12.07;;;3.90;;
5989;SDS011;14149;53.562;10.032;2022-10-22T14:55:15;10.77;;;4.20;;
5989;SDS011;14149;53.562;10.032;2022-10-22T14:57:42;14.10;;;4.17;;
5989;SDS011;14149;53.562;10.032;2022-10-22T15:00:10;9.50;;;3.70;;
5989;SDS011;14149;53.562;10.032;2022-10-22T15:02:37;14.47;;;3.93;;
5989;SDS011;14149;53.562;10.032;2022-10-22T15:05:03;13.00;;;4.43;;
5989;SDS011;14149;53.562;10.032;2022-10-22T15:07:29;7.70;;;4.20;;
5989;SDS011;14149;53.562;10.032;2022-10-22T15:09:55;10.40;;;4.33;;
5989;SDS011;14149;53.562;10.032;2022-10-22T15:12:21;10.73;;;3.73;;
5989;SDS011;14149;53.562;10.032;2022-10-22T15:14:48;10.80;;;3.67;;
5989;SDS011;14149;53.562;10.032;2022-10-22T15:17:14;13.00;;;5.03;;
5989;SDS011;14149;53.562;10.032;2022-10-22T15:19:41;11.70;;;5.00;;
5989;SDS011;14149;53.562;10.032;2022-10-22T15:22:10;9.43;;;5.77;;
5989;SDS011;14149;53.562;10.032;2022-10-22T15:24:37;8.90;;;5.13;;
5989;SDS011;14149;53.562;10.032;2022-10-22T15:27:03;11.57;;;4.33;;
5989;SDS011;14149;53.562;10.032;2022-10-22T15:29:29;11.47;;;5.60;;
5989;SDS011;14149;53.562;10.032;2022-10-22T15:31:56;10.07;;;4.93;;
5989;SDS011;14149;53.562;10.032;2022-10-22T15:34:27;15.47;;;5.53;;
5989;SDS011;14149;53.562;10.032;2022-10-22T15:36:54;14.80;;;5.03;;
5989;SDS011;14149;53.562;10.032;2022-10-22T15:39:21;10.60;;;5.03;;
5989;SDS011;14149;53.562;10.032;2022-10-22T15:41:47;14.50;;;5.07;;
5989;SDS011;14149;53.562;10.032;2022-10-22T15:44:14;12.00;;;6.90;;
5989;SDS011;14149;53.562;10.032;2022-10-22T15:46:41;14.63;;;6.00;;
5989;SDS011;14149;53.562;10.032;2022-10-22T15:49:07;17.33;;;5.87;;
5989;SDS011;14149;53.562;10.032;2022-10-22T15:51:33;13.67;;;5.47;;
5989;SDS011;14149;53.562;10.032;2022-10-22T15:53:59;15.00;;;7.60;;